createdAt,value
2022-12-25T00:00:33.254Z,4.63
2022-12-25T00:02:59.696Z,4.61
2022-12-25T00:05:26.043Z,4.58
2022-12-25T00:07:52.397Z,4.58
2022-12-25T00:10:18.737Z,4.55
2022-12-25T00:12:45.061Z,4.53
2022-12-25T00:15:11.410Z,4.53
2022-12-25T00:17:37.715Z,4.51
2022-12-25T00:20:04.186Z,4.54
2022-12-25T00:22:30.456Z,4.49
2022-12-25T00:24:56.719Z,4.47
2022-12-25T00:27:23.032Z,4.46
2022-12-25T00:29:49.332Z,4.47
2022-12-25T00:32:15.691Z,4.44
2022-12-25T00:34:41.971Z,4.45
2022-12-25T00:37:08.283Z,4.44
2022-12-25T00:39:34.567Z,4.42
2022-12-25T00:42:19.384Z,4.43
2022-12-25T00:44:46.486Z,4.45
2022-12-25T00:47:12.929Z,4.47
2022-12-25T00:49:40.544Z,4.49
2022-12-25T00:52:07.284Z,4.50
2022-12-25T00:54:33.946Z,4.55
2022-12-25T00:57:00.384Z,4.59
2022-12-25T00:59:26.758Z,4.66
2022-12-25T01:01:53.151Z,4.68
2022-12-25T01:04:19.677Z,4.70
2022-12-25T01:06:45.999Z,4.74
2022-12-25T01:09:30.709Z,4.73
2022-12-25T01:11:57.090Z,4.75
2022-12-25T01:14:23.382Z,4.75
2022-12-25T01:16:49.790Z,4.77
2022-12-25T01:19:16.199Z,4.78
2022-12-25T01:21:42.484Z,4.78
2022-12-25T01:24:08.772Z,4.78
2022-12-25T01:26:35.059Z,4.78
2022-12-25T01:29:02.471Z,4.79
2022-12-25T01:31:28.765Z,4.77
2022-12-25T01:33:55.097Z,4.78
2022-12-25T01:36:22.630Z,4.80
2022-12-25T01:38:49.149Z,4.77
2022-12-25T01:41:16.797Z,4.75
2022-12-25T01:44:00.203Z,4.63
2022-12-25T01:46:26.692Z,4.45
2022-12-25T01:48:53.978Z,4.28
2022-12-25T01:51:28.828Z,4.20
2022-12-25T01:53:56.019Z,4.19
2022-12-25T01:56:22.451Z,4.22
2022-12-25T01:58:48.981Z,4.25
2022-12-25T02:01:15.564Z,4.30
2022-12-25T02:03:42.457Z,4.34
2022-12-25T02:06:08.768Z,4.34
2022-12-25T02:08:35.047Z,4.35
2022-12-25T02:11:01.369Z,4.31
2022-12-25T02:13:27.812Z,4.29
2022-12-25T02:16:12.412Z,4.31
2022-12-25T02:18:56.751Z,4.30
2022-12-25T02:21:23.014Z,4.33
2022-12-25T02:23:49.260Z,4.32
2022-12-25T02:26:36.194Z,4.31
2022-12-25T02:29:10.228Z,4.31
2022-12-25T02:31:50.281Z,4.20
2022-12-25T02:34:22.512Z,4.12
2022-12-25T02:36:56.300Z,4.09
2022-12-25T02:39:51.159Z,4.11
2022-12-25T02:42:56.372Z,4.17
2022-12-25T02:45:46.380Z,4.27
2022-12-25T02:48:31.846Z,4.34
2022-12-25T02:51:17.598Z,4.40
2022-12-25T02:54:04.065Z,4.42
2022-12-25T02:56:49.877Z,4.43
2022-12-25T02:59:35.717Z,4.46
2022-12-25T03:02:21.555Z,4.47
2022-12-25T03:05:07.847Z,4.48
2022-12-25T03:07:37.221Z,4.54
2022-12-25T03:10:23.475Z,4.59
2022-12-25T03:12:53.528Z,4.61
2022-12-25T03:15:39.082Z,4.68
2022-12-25T03:18:08.244Z,4.74
2022-12-25T03:20:53.379Z,4.77
2022-12-25T03:23:40.165Z,4.77
2022-12-25T03:26:25.992Z,4.78
2022-12-25T03:28:52.277Z,4.83
2022-12-25T03:31:18.625Z,4.82
2022-12-25T03:34:07.582Z,4.83
2022-12-25T03:36:51.209Z,4.83
2022-12-25T03:39:44.496Z,4.83
2022-12-25T03:42:34.152Z,4.82
2022-12-25T03:45:05.626Z,4.83
2022-12-25T03:47:58.614Z,4.81
2022-12-25T03:50:46.418Z,4.80
2022-12-25T03:53:36.607Z,4.75
2022-12-25T03:56:23.114Z,4.70
2022-12-25T03:59:09.404Z,4.65
2022-12-25T04:01:54.269Z,4.63
2022-12-25T04:04:39.499Z,4.59
2022-12-25T04:07:24.315Z,4.56
2022-12-25T04:10:09.310Z,4.55
2022-12-25T04:12:53.955Z,4.52
2022-12-25T04:15:38.683Z,4.51
2022-12-25T04:18:24.001Z,4.52
2022-12-25T04:21:08.840Z,4.53
2022-12-25T04:23:53.777Z,4.53
2022-12-25T04:26:38.510Z,4.54
2022-12-25T04:29:23.409Z,4.55
2022-12-25T04:32:08.216Z,4.56
2022-12-25T04:34:53.113Z,4.57
2022-12-25T04:37:19.400Z,4.57
2022-12-25T04:39:45.693Z,4.58
2022-12-25T04:42:12.045Z,4.61
2022-12-25T04:44:38.285Z,4.62
2022-12-25T04:47:09.276Z,4.62
2022-12-25T04:49:37.651Z,4.64
2022-12-25T04:52:03.979Z,4.64
2022-12-25T04:54:30.294Z,4.67
2022-12-25T04:56:56.577Z,4.68
2022-12-25T04:59:22.986Z,4.68
2022-12-25T05:01:49.352Z,4.68
2022-12-25T05:04:15.692Z,4.67
2022-12-25T05:06:42.016Z,4.66
2022-12-25T05:09:08.352Z,4.65
2022-12-25T05:11:34.731Z,4.61
2022-12-25T05:14:01.025Z,4.60
2022-12-25T05:16:27.593Z,4.55
2022-12-25T05:18:53.999Z,4.52
2022-12-25T05:21:20.476Z,4.50
2022-12-25T05:23:49.489Z,4.49
2022-12-25T05:26:16.785Z,4.46
2022-12-25T05:28:43.338Z,4.43
2022-12-25T05:31:09.696Z,4.39
2022-12-25T05:33:35.973Z,4.38
2022-12-25T05:36:03.360Z,4.37
2022-12-25T05:38:29.639Z,4.38
2022-12-25T05:40:55.922Z,4.37
2022-12-25T05:43:22.247Z,4.34
2022-12-25T05:45:48.526Z,4.33
2022-12-25T05:48:15.001Z,4.32
2022-12-25T05:50:41.328Z,4.25
2022-12-25T05:53:08.996Z,4.22
2022-12-25T05:55:39.411Z,4.17
2022-12-25T05:58:06.823Z,4.12
2022-12-25T06:00:33.785Z,4.08
2022-12-25T06:03:00.437Z,4.05
2022-12-25T06:05:26.886Z,4.03
2022-12-25T06:07:53.179Z,4.00
2022-12-25T06:10:19.617Z,4.02
2022-12-25T06:12:45.961Z,4.00
2022-12-25T06:15:12.223Z,4.01
2022-12-25T06:17:38.628Z,4.00
2022-12-25T06:20:05.309Z,4.02
2022-12-25T06:22:32.262Z,4.01
2022-12-25T06:24:59.068Z,4.00
2022-12-25T06:27:25.433Z,3.99
2022-12-25T06:29:51.821Z,3.99
2022-12-25T06:32:18.212Z,3.98
2022-12-25T06:34:44.473Z,3.99
2022-12-25T06:37:10.904Z,3.96
2022-12-25T06:39:37.160Z,3.95
2022-12-25T06:42:03.542Z,3.91
2022-12-25T06:44:29.803Z,3.87
2022-12-25T06:46:56.082Z,3.83
2022-12-25T06:49:22.317Z,3.80
2022-12-25T06:51:48.608Z,3.76
2022-12-25T06:54:14.900Z,3.74
2022-12-25T06:56:41.184Z,3.72
2022-12-25T06:59:08.787Z,3.71
2022-12-25T07:01:52.290Z,3.70
2022-12-25T07:04:21.578Z,3.69
2022-12-25T07:06:47.853Z,3.69
2022-12-25T07:09:14.156Z,3.67
2022-12-25T07:11:40.425Z,3.69
2022-12-25T07:14:06.696Z,3.70
2022-12-25T07:16:33.005Z,3.71
2022-12-25T07:19:00.191Z,3.72
2022-12-25T07:21:26.685Z,3.73
2022-12-25T07:23:53.048Z,3.76
2022-12-25T07:26:19.361Z,3.79
2022-12-25T07:28:45.693Z,3.79
2022-12-25T07:31:14.319Z,3.81
2022-12-25T07:33:41.260Z,3.81
2022-12-25T07:36:07.817Z,3.81
2022-12-25T07:38:39.044Z,3.84
2022-12-25T07:41:07.828Z,3.86
2022-12-25T07:43:34.138Z,3.89
2022-12-25T07:46:00.835Z,3.91
2022-12-25T07:48:27.686Z,3.95
2022-12-25T07:51:01.462Z,3.97
2022-12-25T07:53:27.849Z,4.00
2022-12-25T07:56:04.356Z,4.02
2022-12-25T07:58:30.906Z,4.04
2022-12-25T08:01:01.911Z,4.07
2022-12-25T08:03:28.397Z,4.10
2022-12-25T08:05:54.763Z,4.10
2022-12-25T08:08:21.218Z,4.12
2022-12-25T08:10:47.743Z,4.16
2022-12-25T08:13:14.888Z,4.15
2022-12-25T08:15:41.617Z,4.18
2022-12-25T08:18:07.955Z,4.19
2022-12-25T08:20:34.505Z,4.22
2022-12-25T08:23:00.778Z,4.25
2022-12-25T08:25:27.093Z,4.27
2022-12-25T08:27:53.370Z,4.28
2022-12-25T08:30:19.744Z,4.34
2022-12-25T08:32:46.242Z,4.36
2022-12-25T08:35:12.528Z,4.38
2022-12-25T08:37:39.020Z,4.36
2022-12-25T08:40:06.113Z,4.37
2022-12-25T08:42:32.394Z,4.36
2022-12-25T08:44:58.722Z,4.34
2022-12-25T08:47:24.983Z,4.35
2022-12-25T08:49:51.256Z,4.35
2022-12-25T08:52:17.640Z,4.37
2022-12-25T08:54:43.928Z,4.42
2022-12-25T08:57:10.196Z,4.46
2022-12-25T08:59:36.471Z,4.51
2022-12-25T09:02:02.891Z,4.56
2022-12-25T09:04:29.289Z,4.60
2022-12-25T09:06:55.855Z,4.63
2022-12-25T09:09:25.812Z,4.65
2022-12-25T09:11:52.085Z,4.69
2022-12-25T09:14:18.374Z,4.73
2022-12-25T09:16:44.673Z,4.75
2022-12-25T09:19:11.559Z,4.78
2022-12-25T09:21:38.325Z,4.80
2022-12-25T09:24:04.774Z,4.86
2022-12-25T09:26:31.089Z,4.87
2022-12-25T09:28:58.595Z,4.90
2022-12-25T09:31:25.603Z,4.93
2022-12-25T09:33:56.155Z,4.97
2022-12-25T09:36:27.448Z,4.95
2022-12-25T09:38:54.195Z,5.02
2022-12-25T09:41:38.069Z,5.03
2022-12-25T09:44:11.005Z,5.06
2022-12-25T09:46:48.241Z,5.07
2022-12-25T09:49:24.482Z,5.11
2022-12-25T09:51:55.325Z,5.14
2022-12-25T09:54:35.585Z,5.19
2022-12-25T09:57:02.936Z,5.24
2022-12-25T09:59:30.640Z,5.30
2022-12-25T10:02:24.129Z,5.34
2022-12-25T10:05:04.359Z,5.36
2022-12-25T10:07:46.092Z,5.40
2022-12-25T10:10:12.889Z,5.43
2022-12-25T10:12:54.005Z,5.44
2022-12-25T10:15:29.627Z,5.44
2022-12-25T10:18:02.202Z,5.42
2022-12-25T10:20:34.768Z,5.42
2022-12-25T10:23:02.765Z,5.40
2022-12-25T10:25:31.530Z,5.41
2022-12-25T10:28:02.414Z,5.41
2022-12-25T10:30:29.623Z,5.40
2022-12-25T10:32:57.498Z,5.40
2022-12-25T10:35:26.695Z,5.42
2022-12-25T10:38:00.618Z,5.44
2022-12-25T10:40:35.044Z,5.47
2022-12-25T10:43:08.441Z,5.49
2022-12-25T10:45:48.815Z,5.50
2022-12-25T10:48:21.097Z,5.53
2022-12-25T10:50:48.483Z,5.55
2022-12-25T10:53:22.807Z,5.54
2022-12-25T10:55:56.581Z,5.53
2022-12-25T10:58:23.228Z,5.53
2022-12-25T11:00:58.752Z,5.52
2022-12-25T11:03:26.997Z,5.52
2022-12-25T11:05:54.395Z,5.53
2022-12-25T11:08:22.641Z,5.55
2022-12-25T11:10:54.164Z,5.56
2022-12-25T11:13:22.310Z,5.58
2022-12-25T11:15:49.693Z,5.60
2022-12-25T11:18:23.664Z,5.64
2022-12-25T11:20:51.920Z,5.63
2022-12-25T11:25:55.308Z,5.62
2022-12-25T11:28:21.681Z,5.62
2022-12-25T11:30:53.343Z,5.65
2022-12-25T11:33:21.464Z,5.65
2022-12-25T11:35:52.736Z,5.67
2022-12-25T11:38:19.879Z,5.69
2022-12-25T11:40:49.073Z,5.70
2022-12-25T11:43:15.871Z,5.68
2022-12-25T11:45:47.764Z,5.68
2022-12-25T11:48:29.642Z,5.69
2022-12-25T11:50:58.264Z,5.69
2022-12-25T11:53:51.173Z,5.70
2022-12-25T11:56:18.810Z,5.74
2022-12-25T11:58:48.320Z,5.79
2022-12-25T12:01:35.641Z,5.79
2022-12-25T12:04:03.519Z,5.81
2022-12-25T12:06:35.383Z,5.81
2022-12-25T12:09:12.151Z,5.81
2022-12-25T12:11:46.213Z,5.80
2022-12-25T12:14:20.628Z,5.76
2022-12-25T12:16:47.603Z,5.74
2022-12-25T12:19:26.568Z,5.69
2022-12-25T12:21:59.378Z,5.65
2022-12-25T12:24:29.742Z,5.63
2022-12-25T12:27:01.933Z,5.61
2022-12-25T12:29:30.195Z,5.60
2022-12-25T12:32:06.941Z,5.62
2022-12-25T12:34:36.150Z,5.64
2022-12-25T12:37:07.757Z,5.66
2022-12-25T12:39:36.452Z,5.66
2022-12-25T12:42:02.973Z,5.64
2022-12-25T12:44:32.544Z,5.62
2022-12-25T12:46:58.890Z,5.58
2022-12-25T12:49:27.190Z,5.59
2022-12-25T12:52:04.551Z,5.61
2022-12-25T12:54:30.949Z,5.62
2022-12-25T12:56:57.314Z,5.62
2022-12-25T12:59:24.360Z,5.64
2022-12-25T13:02:09.087Z,5.63
2022-12-25T13:04:46.090Z,5.65
2022-12-25T13:07:20.574Z,5.64
2022-12-25T13:09:56.536Z,5.65
2022-12-25T13:12:23.401Z,5.64
2022-12-25T13:14:50.043Z,5.63
2022-12-25T13:17:18.633Z,5.65
2022-12-25T13:19:45.278Z,5.67
2022-12-25T13:22:40.915Z,5.67
2022-12-25T13:25:17.298Z,5.68
2022-12-25T13:30:27.993Z,5.70
2022-12-25T13:32:55.142Z,5.70
2022-12-25T13:35:22.690Z,5.72
2022-12-25T13:37:49.260Z,5.75
2022-12-25T13:40:27.964Z,5.72
2022-12-25T13:42:58.516Z,5.72
2022-12-25T13:45:26.170Z,5.71
2022-12-25T13:47:56.202Z,5.70
2022-12-25T13:50:27.478Z,5.72
2022-12-25T13:52:54.629Z,5.70
2022-12-25T13:55:22.578Z,5.71
2022-12-25T13:57:56.565Z,5.71
2022-12-25T14:00:25.672Z,5.71
2022-12-25T14:02:52.268Z,5.67
2022-12-25T14:05:22.273Z,5.63
2022-12-25T14:07:53.249Z,5.58
2022-12-25T14:10:20.431Z,5.51
2022-12-25T14:12:49.489Z,5.48
2022-12-25T14:15:17.939Z,5.45
2022-12-25T14:17:44.665Z,5.43
2022-12-25T14:20:21.765Z,5.42
2022-12-25T14:22:50.832Z,5.39
2022-12-25T14:25:17.214Z,5.40
2022-12-25T14:27:48.677Z,5.37
2022-12-25T14:30:15.111Z,5.36
2022-12-25T14:32:44.424Z,5.33
2022-12-25T14:35:11.867Z,5.33
2022-12-25T14:37:38.387Z,5.32
2022-12-25T14:40:06.729Z,5.30
2022-12-25T14:42:35.044Z,5.28
2022-12-25T14:45:03.359Z,5.27
2022-12-25T14:47:30.423Z,5.26
2022-12-25T14:49:56.794Z,5.23
2022-12-25T14:52:23.029Z,5.22
2022-12-25T14:54:54.282Z,5.19
2022-12-25T14:57:27.229Z,5.19
2022-12-25T14:59:57.716Z,5.18
2022-12-25T15:02:24.335Z,5.18
2022-12-25T15:04:50.738Z,5.18
2022-12-25T15:07:31.009Z,5.17
2022-12-25T15:10:27.267Z,5.17
2022-12-25T15:12:43.693Z,5.17
2022-12-25T15:15:10.076Z,5.15
2022-12-25T15:17:36.576Z,5.16
2022-12-25T15:20:04.033Z,5.16
2022-12-25T15:22:47.705Z,5.16
2022-12-25T15:25:16.706Z,5.16
2022-12-25T15:27:43.059Z,5.15
2022-12-25T15:30:11.144Z,5.14
2022-12-25T15:32:37.823Z,5.13
2022-12-25T15:35:04.568Z,5.12
2022-12-25T15:37:31.004Z,5.13
2022-12-25T15:39:57.563Z,5.12
2022-12-25T15:42:25.243Z,5.11
2022-12-25T15:44:52.060Z,5.12
2022-12-25T15:47:20.166Z,5.11
2022-12-25T15:49:46.596Z,5.11
2022-12-25T15:52:14.436Z,5.13
2022-12-25T15:54:40.794Z,5.10
2022-12-25T15:57:12.094Z,5.11
2022-12-25T15:59:38.333Z,5.12
2022-12-25T16:02:13.508Z,5.13
2022-12-25T16:04:42.343Z,5.15
2022-12-25T16:07:13.735Z,5.15
2022-12-25T16:09:39.991Z,5.17
2022-12-25T16:12:06.349Z,5.16
2022-12-25T16:14:32.609Z,5.17
2022-12-25T16:16:58.873Z,5.19
2022-12-25T16:19:25.144Z,5.20
2022-12-25T16:21:51.404Z,5.21
2022-12-25T16:24:17.716Z,5.22
2022-12-25T16:26:44.158Z,5.20
2022-12-25T16:29:10.599Z,5.19
2022-12-25T16:31:37.747Z,5.18
2022-12-25T16:34:04.691Z,5.17
2022-12-25T16:36:35.061Z,5.18
2022-12-25T16:39:01.566Z,5.16
2022-12-25T16:41:27.867Z,5.15
2022-12-25T16:43:54.118Z,5.16
2022-12-25T16:46:21.808Z,5.16
2022-12-25T16:48:48.188Z,5.14
2022-12-25T16:51:15.936Z,5.13
2022-12-25T16:53:43.233Z,5.11
2022-12-25T16:56:11.247Z,5.10
2022-12-25T16:58:37.965Z,5.10
2022-12-25T17:01:05.986Z,5.08
2022-12-25T17:03:32.755Z,5.07
2022-12-25T17:05:59.215Z,5.08
2022-12-25T17:08:25.565Z,5.07
2022-12-25T17:10:53.012Z,5.06
2022-12-25T17:13:20.578Z,5.06
2022-12-25T17:15:50.624Z,5.03
2022-12-25T17:18:21.667Z,5.05
2022-12-25T17:20:51.983Z,5.03
2022-12-25T17:23:18.544Z,5.04
2022-12-25T17:25:44.807Z,5.02
2022-12-25T17:28:11.207Z,5.02
2022-12-25T17:30:37.590Z,5.01
2022-12-25T17:33:03.933Z,4.99
2022-12-25T17:35:30.293Z,4.99
2022-12-25T17:37:56.558Z,4.98
2022-12-25T17:40:23.964Z,4.94
2022-12-25T17:42:52.728Z,4.94
2022-12-25T17:45:19.079Z,4.93
2022-12-25T17:47:45.371Z,4.91
2022-12-25T17:50:11.657Z,4.91
2022-12-25T17:52:37.936Z,4.90
2022-12-25T17:55:04.344Z,4.89
2022-12-25T17:57:30.696Z,4.87
2022-12-25T17:59:57.121Z,4.86
2022-12-25T18:02:23.719Z,4.84
2022-12-25T18:04:50.229Z,4.84
2022-12-25T18:07:17.483Z,4.83
2022-12-25T18:09:45.597Z,4.84
2022-12-25T18:12:11.892Z,4.84
2022-12-25T18:14:38.253Z,4.85
2022-12-25T18:17:04.729Z,4.86
2022-12-25T18:19:31.223Z,4.86
2022-12-25T18:21:57.507Z,4.87
2022-12-25T18:24:23.793Z,4.88
2022-12-25T18:26:50.213Z,4.88
2022-12-25T18:29:16.600Z,4.89
2022-12-25T18:31:42.952Z,4.90
2022-12-25T18:34:09.518Z,4.90
2022-12-25T18:36:36.864Z,4.90
2022-12-25T18:39:03.779Z,4.92
2022-12-25T18:41:30.813Z,4.94
2022-12-25T18:43:59.630Z,4.95
2022-12-25T18:46:26.987Z,4.97
2022-12-25T18:48:56.876Z,4.95
2022-12-25T18:51:23.829Z,4.97
2022-12-25T18:53:54.311Z,4.93
2022-12-25T18:56:20.761Z,4.94
2022-12-25T18:58:47.262Z,4.95
2022-12-25T19:01:15.331Z,4.96
2022-12-25T19:03:41.721Z,4.94
2022-12-25T19:06:08.154Z,4.93
2022-12-25T19:08:36.129Z,4.92
2022-12-25T19:11:05.956Z,4.93
2022-12-25T19:13:32.412Z,4.93
2022-12-25T19:15:59.382Z,4.92
2022-12-25T19:18:25.911Z,4.91
2022-12-25T19:20:52.443Z,4.92
2022-12-25T19:23:21.726Z,4.93
2022-12-25T19:25:49.398Z,4.93
2022-12-25T19:28:17.818Z,4.92
2022-12-25T19:30:46.101Z,4.92
2022-12-25T19:33:17.671Z,4.94
2022-12-25T19:35:47.231Z,4.93
2022-12-25T19:38:13.507Z,4.92
2022-12-25T19:40:40.360Z,4.91
2022-12-25T19:43:06.701Z,4.91
2022-12-25T19:45:33.072Z,4.93
2022-12-25T19:48:01.339Z,4.94
2022-12-25T19:50:31.859Z,4.95
2022-12-25T19:52:58.231Z,4.95
2022-12-25T19:55:24.663Z,4.97
2022-12-25T19:57:55.346Z,4.95
2022-12-25T20:00:22.173Z,4.96
2022-12-25T20:02:55.792Z,4.92
2022-12-25T20:05:22.325Z,4.92
2022-12-25T20:07:48.621Z,4.92
2022-12-25T20:10:14.958Z,4.92
2022-12-25T20:12:43.813Z,4.92
2022-12-25T20:15:12.923Z,4.90
2022-12-25T20:17:40.626Z,4.90
2022-12-25T20:20:07.353Z,4.89
2022-12-25T20:22:33.797Z,4.87
2022-12-25T20:25:00.208Z,4.87
2022-12-25T20:27:26.555Z,4.85
2022-12-25T20:29:52.808Z,4.85
2022-12-25T20:32:19.136Z,4.83
2022-12-25T20:34:45.970Z,4.80
2022-12-25T20:37:15.059Z,4.80
2022-12-25T20:39:41.483Z,4.80
2022-12-25T20:42:08.088Z,4.80
2022-12-25T20:44:34.380Z,4.80
2022-12-25T20:47:01.076Z,4.79
2022-12-25T20:49:32.090Z,4.78
2022-12-25T20:52:04.779Z,4.78
2022-12-25T20:54:31.935Z,4.77
2022-12-25T20:56:58.228Z,4.78
2022-12-25T20:59:24.500Z,4.76
2022-12-25T21:01:50.873Z,4.76
2022-12-25T21:04:17.231Z,4.74
2022-12-25T21:06:43.614Z,4.75
2022-12-25T21:09:09.947Z,4.75
2022-12-25T21:11:36.227Z,4.75
2022-12-25T21:14:02.528Z,4.75
2022-12-25T21:16:28.990Z,4.75
2022-12-25T21:18:57.318Z,4.74
2022-12-25T21:21:23.894Z,4.74
2022-12-25T21:23:50.698Z,4.72
2022-12-25T21:26:21.293Z,4.74
2022-12-25T21:28:48.530Z,4.73
2022-12-25T21:31:15.368Z,4.71
2022-12-25T21:33:54.931Z,4.71
2022-12-25T21:36:26.962Z,4.70
2022-12-25T21:38:57.457Z,4.69
2022-12-25T21:41:24.634Z,4.68
2022-12-25T21:43:51.092Z,4.67
2022-12-25T21:46:18.005Z,4.65
2022-12-25T21:48:44.706Z,4.65
2022-12-25T21:51:29.450Z,4.65
2022-12-25T21:53:55.754Z,4.68
2022-12-25T21:56:22.056Z,4.72
2022-12-25T21:58:48.539Z,4.71
2022-12-25T22:01:17.827Z,4.72
2022-12-25T22:03:44.395Z,4.68
2022-12-25T22:06:29.420Z,4.65
2022-12-25T22:08:57.000Z,4.63
2022-12-25T22:11:42.477Z,4.61
2022-12-25T22:14:51.558Z,4.61
2022-12-25T22:17:38.212Z,4.58
2022-12-25T22:20:06.053Z,4.57
2022-12-25T22:22:32.396Z,4.57
2022-12-25T22:25:00.032Z,4.57
2022-12-25T22:27:29.789Z,4.57
2022-12-25T22:29:56.062Z,4.55
2022-12-25T22:32:22.324Z,4.57
2022-12-25T22:34:48.615Z,4.62
2022-12-25T22:37:16.094Z,4.65
2022-12-25T22:39:42.473Z,4.63
2022-12-25T22:42:08.830Z,4.63
2022-12-25T22:44:35.109Z,4.61
2022-12-25T22:47:01.424Z,4.57
2022-12-25T22:49:27.744Z,4.55
2022-12-25T22:51:54.063Z,4.55
2022-12-25T22:54:20.952Z,4.58
2022-12-25T22:56:49.364Z,4.58
2022-12-25T22:59:17.517Z,4.59
2022-12-25T23:01:44.108Z,4.59
2022-12-25T23:04:11.194Z,4.58
2022-12-25T23:06:38.265Z,4.58
2022-12-25T23:09:05.513Z,4.57
2022-12-25T23:11:32.118Z,4.62
2022-12-25T23:14:17.266Z,4.62
2022-12-25T23:16:43.649Z,4.58
2022-12-25T23:19:30.710Z,4.62
2022-12-25T23:22:29.119Z,4.63
2022-12-25T23:25:14.777Z,4.63
2022-12-25T23:27:41.579Z,4.65
2022-12-25T23:30:09.071Z,4.66
2022-12-25T23:32:35.534Z,4.63
2022-12-25T23:35:01.888Z,4.66
2022-12-25T23:37:28.192Z,4.63
2022-12-25T23:39:57.331Z,4.65
2022-12-25T23:42:23.675Z,4.65
2022-12-25T23:44:49.962Z,4.67
2022-12-25T23:47:16.407Z,4.67
2022-12-25T23:49:42.781Z,4.64
2022-12-25T23:52:10.584Z,4.64
2022-12-25T23:54:36.886Z,4.61
2022-12-25T23:57:03.237Z,4.62
2022-12-25T23:59:30.469Z,4.60
